Time;durP1;ratioP1;P1;durP2;ratioP2;P2;SDS_P1;SDS_P2;PMS_P1;PMS_P2;Temp;Humidity;BMP_temperature;BMP_pressure;BME280_temperature;BME280_humidity;BME280_pressure;Samples;Min_cycle;Max_cycle;Signal;HPM_P1;HPM_P2
2022/02/07 00:02:11;;;;;;;17.08;12.30;;;8.00;99.90;;;;;;4976964;28;20646;-90
2022/02/07 00:04:38;;;;;;;23.55;16.10;;;8.00;99.90;;;;;;4974669;28;20231;-89
2022/02/07 00:07:05;;;;;;;23.05;14.80;;;8.00;99.90;;;;;;4974910;28;20272;-90
2022/02/07 00:09:33;;;;;;;30.77;24.70;;;8.10;99.90;;;;;;4974493;28;20220;-89
2022/02/07 00:11:59;;;;;;;29.08;19.00;;;8.10;99.90;;;;;;4976166;28;20235;-89
2022/02/07 00:14:24;;;;;;;19.83;13.77;;;8.10;99.90;;;;;;4974333;28;20180;-90
2022/02/07 00:16:50;;;;;;;17.20;12.10;;;8.20;99.90;;;;;;4975874;28;20219;-90
2022/02/07 00:19:23;;;;;;;19.20;12.33;;;8.20;99.90;;;;;;4974487;28;20177;-90
2022/02/07 00:21:50;;;;;;;15.63;10.73;;;8.20;99.90;;;;;;4974857;28;20188;-90
2022/02/07 00:24:16;;;;;;;14.18;10.35;;;8.20;99.90;;;;;;4974754;28;20176;-90
2022/02/07 00:26:41;;;;;;;16.00;11.43;;;8.20;99.90;;;;;;4974706;28;20188;-90
2022/02/07 00:29:07;;;;;;;17.43;12.53;;;8.20;99.90;;;;;;4974432;28;20182;-90
2022/02/07 00:31:35;;;;;;;27.93;21.70;;;8.30;99.90;;;;;;4974731;28;20204;-89
2022/02/07 00:34:01;;;;;;;21.02;17.17;;;8.30;99.90;;;;;;4974080;28;20208;-90
2022/02/07 00:36:27;;;;;;;17.30;12.47;;;8.30;99.90;;;;;;4974611;28;20255;-90
2022/02/07 00:38:58;;;;;;;18.47;13.77;;;8.30;99.90;;;;;;4974262;28;20211;-90
2022/02/07 00:41:38;;;;;;;24.10;17.92;;;8.30;99.90;;;;;;4974583;28;20429;-90
2022/02/07 00:44:11;;;;;;;17.70;13.25;;;8.30;99.90;;;;;;4977023;28;20513;-90
2022/02/07 00:46:46;;;;;;;14.07;10.95;;;8.30;99.90;;;;;;4988475;28;20215;-90
2022/02/07 00:49:12;;;;;;;14.63;10.10;;;8.40;99.90;;;;;;4974987;28;20180;-89
2022/02/07 00:51:37;;;;;;;11.90;9.60;;;8.40;99.90;;;;;;4974152;28;20638;-90
2022/02/07 00:54:03;;;;;;;12.70;10.03;;;8.40;99.90;;;;;;4973992;28;20176;-90
2022/02/07 00:56:29;;;;;;;14.50;10.00;;;8.50;99.90;;;;;;4973990;28;20219;-90
2022/02/07 00:58:54;;;;;;;13.60;9.47;;;8.50;99.90;;;;;;4974141;28;20612;-90
2022/02/07 01:01:21;;;;;;;13.30;9.43;;;8.50;99.90;;;;;;4978049;28;20662;-90
2022/02/07 01:03:47;;;;;;;11.40;9.13;;;8.60;99.90;;;;;;4975011;28;20181;-89
2022/02/07 01:06:13;;;;;;;13.20;9.20;;;8.60;99.90;;;;;;4975528;28;20227;-89
2022/02/07 01:08:47;;;;;;;14.07;9.30;;;8.60;99.90;;;;;;4974276;28;20175;-90
2022/02/07 01:11:20;;;;;;;10.85;8.88;;;8.70;99.90;;;;;;4974284;28;20232;-90
2022/02/07 01:16:48;;;;;;;11.48;9.32;;;8.70;99.90;;;;;;4975425;28;20232;-90
2022/02/07 01:19:37;;;;;;;10.15;8.32;;;8.70;99.90;;;;;;4974969;28;20193;-89
2022/02/07 01:52:22;;;;;;;18.63;9.30;;;8.80;99.90;;;;;;4979393;28;20219;-90
2022/02/07 01:55:07;;;;;;;12.70;8.18;;;8.70;99.90;;;;;;4977667;28;20259;-90
2022/02/07 01:57:33;;;;;;;10.50;7.05;;;8.80;99.90;;;;;;4985451;28;20239;-90
2022/02/07 01:59:59;;;;;;;10.50;7.70;;;8.80;99.90;;;;;;4980941;28;20200;-90
2022/02/07 02:02:24;;;;;;;7.13;6.40;;;8.80;99.90;;;;;;4980894;28;20244;-90
2022/02/07 02:04:50;;;;;;;11.53;7.37;;;8.90;99.90;;;;;;4990852;28;20196;-90
2022/02/07 02:07:16;;;;;;;9.47;6.90;;;8.90;99.90;;;;;;4976665;28;20223;-90
2022/02/07 02:09:42;;;;;;;11.50;6.67;;;8.90;99.90;;;;;;4976753;28;20466;-90
2022/02/07 02:12:09;;;;;;;8.77;7.13;;;9.00;99.90;;;;;;4976796;28;20180;-90
2022/02/07 02:17:29;;;;;;;9.32;6.75;;;9.10;99.90;;;;;;4978122;28;20224;-90
2022/02/07 02:20:44;;;;;;;7.78;6.43;;;9.20;99.90;;;;;;4977313;28;20219;-89
2022/02/07 02:34:21;;;;;;;11.23;7.45;;;9.30;99.90;;;;;;4977675;28;20180;-90
2022/02/07 02:36:41;;;;;;;10.60;7.90;;;9.30;99.90;;;;;;4977323;28;20282;-90
2022/02/07 02:47:05;;;;;;;8.52;6.82;;;9.30;99.90;;;;;;4978988;28;20284;-90
2022/02/07 02:49:42;;;;;;;8.73;7.50;;;9.30;99.90;;;;;;4983303;28;20205;-90
2022/02/07 02:52:08;;;;;;;14.13;7.00;;;9.30;99.90;;;;;;4976287;28;20200;-90
2022/02/07 02:54:34;;;;;;;10.03;7.50;;;9.30;99.90;;;;;;4990828;28;20200;-89
2022/02/07 02:56:59;;;;;;;12.77;7.60;;;9.30;99.90;;;;;;4976988;28;20243;-89
2022/02/07 02:59:25;;;;;;;9.97;8.17;;;9.30;99.90;;;;;;4975902;28;20549;-89
2022/02/07 03:01:51;;;;;;;9.40;7.10;;;9.30;99.90;;;;;;4975920;28;20235;-89
2022/02/07 03:04:16;;;;;;;14.60;7.90;;;9.20;99.90;;;;;;4976601;28;20642;-90
2022/02/07 03:06:43;;;;;;;11.90;7.90;;;9.20;99.90;;;;;;4976043;28;20184;-90
2022/02/07 03:09:13;;;;;;;9.30;7.22;;;9.20;99.90;;;;;;4975138;28;20319;-90
2022/02/07 03:11:39;;;;;;;8.90;7.22;;;9.20;99.90;;;;;;4975764;28;20185;-90
2022/02/07 03:14:06;;;;;;;13.43;7.70;;;9.20;99.90;;;;;;4975739;28;20179;-90
2022/02/07 03:16:39;;;;;;;8.23;6.93;;;9.20;99.90;;;;;;4975414;28;20232;-90
2022/02/07 03:19:11;;;;;;;9.68;7.72;;;9.20;99.90;;;;;;4976858;28;20657;-90
2022/02/07 03:21:39;;;;;;;10.35;7.38;;;9.20;99.90;;;;;;4975681;28;20268;-90
2022/02/07 03:24:07;;;;;;;9.50;7.15;;;9.20;99.90;;;;;;4976858;28;20242;-90
2022/02/07 03:26:42;;;;;;;10.60;7.40;;;9.20;99.90;;;;;;4976321;28;20205;-90
2022/02/07 03:29:09;;;;;;;9.25;7.57;;;9.20;99.90;;;;;;4977325;28;20637;-90
2022/02/07 03:31:35;;;;;;;11.73;8.27;;;9.20;99.90;;;;;;4981432;28;20211;-89
2022/02/07 03:34:01;;;;;;;9.83;6.87;;;9.20;99.90;;;;;;4976106;28;20173;-89
2022/02/07 03:36:30;;;;;;;8.98;8.05;;;9.20;99.90;;;;;;4983578;28;20473;-90
2022/02/07 03:38:56;;;;;;;11.25;7.28;;;9.10;99.90;;;;;;4978368;28;20180;-90
2022/02/07 03:41:23;;;;;;;9.45;6.93;;;9.10;99.90;;;;;;4976567;28;20215;-90
2022/02/07 03:43:49;;;;;;;9.93;8.40;;;9.20;99.90;;;;;;4975386;28;20181;-90
2022/02/07 03:46:14;;;;;;;12.10;8.02;;;9.10;99.90;;;;;;4975223;28;20248;-90
2022/02/07 03:48:40;;;;;;;8.27;6.80;;;9.10;99.90;;;;;;4975271;28;20579;-90
2022/02/07 03:51:06;;;;;;;9.67;7.50;;;9.10;99.90;;;;;;4974641;28;20208;-90
2022/02/07 03:53:31;;;;;;;10.50;7.20;;;9.10;99.90;;;;;;4975013;28;20415;-90
2022/02/07 03:55:57;;;;;;;7.40;6.70;;;9.00;99.90;;;;;;4975010;28;20291;-89
2022/02/07 03:58:23;;;;;;;12.10;6.83;;;9.00;99.90;;;;;;4975592;28;20212;-90
2022/02/07 04:00:51;;;;;;;11.13;7.83;;;9.00;99.90;;;;;;4986540;28;20208;-90
2022/02/07 04:03:20;;;;;;;9.05;6.75;;;9.00;99.90;;;;;;4988596;28;20176;-90
2022/02/07 04:08:16;;;;;;;8.50;6.45;;;8.90;99.90;;;;;;4976101;28;20168;-90
2022/02/07 04:13:13;;;;;;;13.18;8.30;;;8.90;99.90;;;;;;4975969;28;20602;-89
2022/02/07 04:15:39;;;;;;;12.67;6.60;;;8.90;99.90;;;;;;4974524;28;20231;-89
2022/02/07 04:18:10;;;;;;;8.60;7.00;;;8.90;99.90;;;;;;4974787;28;20208;-90
2022/02/07 04:20:38;;;;;;;10.63;7.60;;;8.90;99.90;;;;;;4974792;28;20216;-90
2022/02/07 04:23:03;;;;;;;8.85;6.47;;;8.80;99.90;;;;;;4974588;28;20191;-90
2022/02/07 04:25:29;;;;;;;7.93;6.70;;;8.80;99.90;;;;;;4977741;28;20204;-91
2022/02/07 04:27:55;;;;;;;10.57;6.40;;;8.80;99.90;;;;;;4980379;28;20776;-89
2022/02/07 04:30:21;;;;;;;10.45;7.72;;;8.80;99.90;;;;;;4974461;28;20735;-90
2022/02/07 04:32:47;;;;;;;10.10;7.57;;;8.70;99.90;;;;;;4974748;28;20184;-90
2022/02/07 04:35:12;;;;;;;8.70;7.30;;;8.80;99.90;;;;;;4975599;28;20658;-90
2022/02/07 04:37:38;;;;;;;11.17;7.00;;;8.80;99.90;;;;;;4977581;28;20477;-89
2022/02/07 04:40:04;;;;;;;10.30;7.50;;;8.80;99.90;;;;;;4975470;28;20247;-90
2022/02/07 04:42:30;;;;;;;13.63;7.30;;;8.80;99.90;;;;;;4974754;28;20180;-90
2022/02/07 04:58:29;;;;;;;12.95;6.60;;;8.70;99.90;;;;;;4978643;28;20219;-90
2022/02/07 05:03:33;;;;;;;10.23;6.15;;;8.70;99.90;;;;;;4977945;28;20250;-90
2022/02/07 05:14:11;;;;;;;9.75;6.60;;;8.70;99.90;;;;;;4984387;28;20176;-90
2022/02/07 05:16:38;;;;;;;9.03;6.40;;;8.70;99.90;;;;;;4978134;28;20220;-89
2022/02/07 05:19:05;;;;;;;11.18;7.32;;;8.80;99.90;;;;;;4977910;28;20315;-90
2022/02/07 05:21:31;;;;;;;10.77;6.70;;;8.80;99.90;;;;;;4978414;28;20568;-90
2022/02/07 05:23:56;;;;;;;9.33;6.93;;;8.80;99.90;;;;;;4977458;28;20180;-90
2022/02/07 05:26:23;;;;;;;8.17;7.37;;;8.80;99.90;;;;;;4977565;28;20283;-90
2022/02/07 05:28:50;;;;;;;9.60;6.50;;;8.80;99.90;;;;;;4977482;28;20270;-90
2022/02/07 05:31:19;;;;;;;8.25;6.35;;;8.90;99.90;;;;;;4982571;28;20211;-89
2022/02/07 05:33:44;;;;;;;8.25;6.38;;;8.90;99.90;;;;;;4995775;28;20180;-90
2022/02/07 05:36:10;;;;;;;9.70;5.80;;;8.90;99.90;;;;;;4996140;28;20218;-90
2022/02/07 05:38:39;;;;;;;8.00;6.13;;;8.90;99.90;;;;;;4997245;28;20473;-89
2022/02/07 05:41:07;;;;;;;9.52;7.07;;;9.00;99.90;;;;;;5003473;28;20493;-90
2022/02/07 05:43:33;;;;;;;11.85;7.82;;;9.00;99.90;;;;;;4993702;28;20204;-90
2022/02/07 05:45:59;;;;;;;9.65;7.55;;;9.00;99.90;;;;;;5001553;28;20567;-90
2022/02/07 05:48:25;;;;;;;10.83;7.00;;;9.00;99.90;;;;;;5001140;28;20184;-89
2022/02/07 05:50:50;;;;;;;8.87;7.10;;;9.10;99.90;;;;;;5005394;28;20203;-89
2022/02/07 05:53:16;;;;;;;10.67;7.83;;;9.10;99.90;;;;;;4995970;28;20180;-90
2022/02/07 05:55:42;;;;;;;16.40;13.50;;;9.10;99.90;;;;;;4993875;28;20200;-89
2022/02/07 05:58:07;;;;;;;7.30;6.53;;;9.10;99.90;;;;;;4997518;28;20218;-90
2022/02/07 06:00:34;;;;;;;11.30;7.83;;;9.20;99.90;;;;;;4996254;28;20259;-90
2022/02/07 06:03:00;;;;;;;8.18;7.32;;;9.20;99.90;;;;;;4993395;28;20236;-89
2022/02/07 06:05:26;;;;;;;7.90;6.60;;;9.20;99.90;;;;;;4996304;28;20261;-90
2022/02/07 06:07:52;;;;;;;6.15;5.35;;;9.20;99.90;;;;;;4995944;28;20176;-88
2022/02/07 06:10:18;;;;;;;7.93;6.10;;;9.20;99.90;;;;;;4995669;28;20243;-90
2022/02/07 06:12:46;;;;;;;8.80;5.90;;;9.30;99.90;;;;;;4995506;28;20183;-90
2022/02/07 06:15:12;;;;;;;8.68;6.60;;;9.20;99.90;;;;;;4995865;28;20955;-89
2022/02/07 06:17:38;;;;;;;9.40;6.40;;;9.30;99.90;;;;;;4995341;28;20212;-89
2022/02/07 06:20:05;;;;;;;8.40;7.30;;;9.30;99.90;;;;;;4995304;28;20558;-90
2022/02/07 06:22:31;;;;;;;8.82;7.30;;;9.30;99.90;;;;;;4995907;28;20210;-89
2022/02/07 06:24:57;;;;;;;7.70;6.70;;;9.30;99.90;;;;;;4995348;28;20283;-90
2022/02/07 06:27:24;;;;;;;7.65;6.63;;;9.30;99.90;;;;;;4995684;28;20179;-89
2022/02/07 06:29:50;;;;;;;9.05;7.00;;;9.30;99.90;;;;;;4994182;28;20207;-89
2022/02/07 06:32:15;;;;;;;12.02;9.88;;;9.30;99.90;;;;;;4994667;28;20693;-90
2022/02/07 06:34:41;;;;;;;13.17;7.60;;;9.30;99.90;;;;;;4991107;28;20287;-90
2022/02/07 06:37:07;;;;;;;10.50;8.97;;;9.30;99.90;;;;;;4996614;28;20207;-89
2022/02/07 06:39:33;;;;;;;9.80;8.30;;;9.30;99.90;;;;;;4995720;28;20429;-90
2022/02/07 06:41:59;;;;;;;9.63;8.68;;;9.30;99.90;;;;;;4996497;28;20480;-89
2022/02/07 06:44:26;;;;;;;10.20;7.87;;;9.30;99.90;;;;;;4996852;28;20179;-90
2022/02/07 06:46:53;;;;;;;11.27;8.27;;;9.30;99.90;;;;;;5003459;28;20180;-90
2022/02/07 06:49:18;;;;;;;34.95;15.98;;;9.30;99.90;;;;;;5008669;28;20175;-90
2022/02/07 06:51:45;;;;;;;8.90;8.00;;;9.30;99.90;;;;;;4996082;28;20245;-89
2022/02/07 06:54:10;;;;;;;12.32;9.70;;;9.30;99.90;;;;;;4994300;28;20246;-90
2022/02/07 06:56:36;;;;;;;12.23;10.47;;;9.30;99.90;;;;;;4994974;28;20570;-90
2022/02/07 06:59:03;;;;;;;62.17;33.93;;;9.30;99.90;;;;;;4994674;28;20751;-90
2022/02/07 07:01:29;;;;;;;19.90;11.00;;;9.40;99.90;;;;;;4993196;28;20978;-89
2022/02/07 07:03:55;;;;;;;7.45;6.32;;;9.40;99.90;;;;;;4994161;28;20180;-89
2022/02/07 07:06:21;;;;;;;10.20;6.97;;;9.40;99.90;;;;;;5000386;28;20711;-89
2022/02/07 07:08:54;;;;;;;16.47;11.00;;;9.40;99.90;;;;;;4992669;28;20180;-90
2022/02/07 07:11:24;;;;;;;24.60;17.25;;;9.40;99.90;;;;;;4994129;28;20212;-87
2022/02/07 07:13:54;;;;;;;13.98;9.95;;;9.40;99.90;;;;;;5001584;28;20207;-90
2022/02/07 07:19:01;;;;;;;18.27;8.93;;;9.40;99.90;;;;;;4995708;28;20334;-89
2022/02/07 07:21:27;;;;;;;10.10;7.25;;;9.30;99.90;;;;;;4992853;28;20219;-89
2022/02/07 07:23:53;;;;;;;9.77;7.57;;;9.30;99.90;;;;;;4994456;28;20180;-89
2022/02/07 07:26:22;;;;;;;9.60;7.43;;;9.30;99.90;;;;;;4993828;28;20419;-88
2022/02/07 07:28:48;;;;;;;8.68;6.45;;;9.30;99.90;;;;;;4994854;28;20187;-89
2022/02/07 07:31:15;;;;;;;10.43;6.50;;;9.30;99.90;;;;;;4991779;28;20235;-88
2022/02/07 07:33:43;;;;;;;9.15;7.05;;;9.30;99.90;;;;;;4999071;28;20183;-88
2022/02/07 07:36:09;;;;;;;9.38;7.10;;;9.20;99.90;;;;;;4994252;28;20216;-90
2022/02/07 07:38:35;;;;;;;9.03;5.00;;;9.20;99.90;;;;;;4995244;28;20219;-90
2022/02/07 07:41:01;;;;;;;6.77;4.63;;;9.10;99.90;;;;;;4991245;28;20207;-90
2022/02/07 07:43:27;;;;;;;8.40;5.90;;;8.90;99.90;;;;;;4995669;28;20210;-90
2022/02/07 07:46:04;;;;;;;6.87;5.30;;;8.70;99.90;;;;;;4992473;28;20208;-89
2022/02/07 07:48:32;;;;;;;7.72;5.85;;;8.60;99.90;;;;;;4991894;28;20192;-90
2022/02/07 07:51:05;;;;;;;6.75;5.70;;;8.50;99.90;;;;;;4988617;28;20258;-90
2022/02/07 07:54:11;;;;;;;6.53;5.65;;;8.40;99.90;;;;;;4991265;28;20195;-89
2022/02/07 08:02:08;;;;;;;9.13;6.35;;;8.20;99.90;;;;;;4995365;28;20210;-89
2022/02/07 08:04:35;;;;;;;7.00;6.30;;;8.20;99.90;;;;;;4993263;28;20215;-90
2022/02/07 08:07:11;;;;;;;9.20;5.85;;;8.20;99.90;;;;;;4993249;28;20531;-90
2022/02/07 08:12:11;;;;;;;7.85;5.60;;;8.20;99.90;;;;;;5000477;28;20194;-90
2022/02/07 08:14:37;;;;;;;8.52;5.30;;;8.20;99.90;;;;;;4993407;28;20223;-89
2022/02/07 08:17:04;;;;;;;20.70;10.10;;;8.20;99.90;;;;;;4991779;28;20729;-90
2022/02/07 08:19:31;;;;;;;22.67;11.30;;;8.20;99.90;;;;;;4995711;28;20192;-89
2022/02/07 08:21:57;;;;;;;14.57;8.57;;;8.20;99.90;;;;;;4987372;28;20188;-90
2022/02/07 08:24:23;;;;;;;9.48;6.72;;;8.20;99.90;;;;;;4991111;28;20184;-89
2022/02/07 08:26:59;;;;;;;6.03;5.20;;;8.20;99.90;;;;;;4989793;28;20234;-89
2022/02/07 08:29:24;;;;;;;7.80;5.60;;;8.20;99.90;;;;;;4990235;28;20649;-90
2022/02/07 08:31:50;;;;;;;6.90;4.93;;;8.20;99.90;;;;;;4998640;28;20207;-88
2022/02/07 08:34:16;;;;;;;6.20;5.40;;;8.20;99.90;;;;;;4991605;28;20202;-88
2022/02/07 08:36:42;;;;;;;9.68;6.72;;;8.20;99.90;;;;;;4992271;28;20317;-87
2022/02/07 08:39:09;;;;;;;9.50;6.15;;;8.20;99.90;;;;;;4993440;28;20250;-87
2022/02/07 08:41:35;;;;;;;11.68;6.45;;;8.20;99.90;;;;;;4992634;28;20237;-90
2022/02/07 08:44:01;;;;;;;8.90;5.90;;;8.20;99.90;;;;;;4997110;28;20631;-90
2022/02/07 08:46:26;;;;;;;9.43;6.27;;;8.20;99.90;;;;;;4986359;28;20204;-90
2022/02/07 08:48:52;;;;;;;10.33;6.73;;;8.20;99.90;;;;;;4996287;28;20180;-90
2022/02/07 08:51:19;;;;;;;7.90;5.13;;;8.20;99.90;;;;;;5010625;28;20207;-90
2022/02/07 08:53:47;;;;;;;10.13;4.93;;;8.20;99.90;;;;;;4998084;28;20180;-89
2022/02/07 08:56:13;;;;;;;9.75;5.47;;;8.20;99.90;;;;;;4995721;28;20231;-90
2022/02/07 08:58:44;;;;;;;7.93;5.78;;;8.20;99.90;;;;;;4992016;28;20307;-91
2022/02/07 09:01:21;;;;;;;9.38;6.57;;;8.20;99.90;;;;;;4992436;28;20212;-90
2022/02/07 09:11:11;;;;;;;12.13;6.50;;;8.30;99.90;;;;;;4993790;28;20211;-90
2022/02/07 09:13:40;;;;;;;12.25;6.70;;;8.30;99.90;;;;;;4987758;28;20181;-89
2022/02/07 09:18:39;;;;;;;12.10;8.07;;;8.30;99.90;;;;;;4999343;28;20246;-90
2022/02/07 09:21:06;;;;;;;10.65;6.82;;;8.30;99.90;;;;;;4992667;28;20685;-89
2022/02/07 09:23:33;;;;;;;10.32;6.22;;;8.30;99.90;;;;;;4987821;28;20181;-89
2022/02/07 09:25:59;;;;;;;9.40;6.03;;;8.40;99.90;;;;;;4995367;28;20231;-90
2022/02/07 09:28:27;;;;;;;8.87;5.57;;;8.40;99.90;;;;;;4998540;28;20187;-90
2022/02/07 09:30:53;;;;;;;6.07;4.70;;;8.40;99.90;;;;;;4994228;28;20420;-89
2022/02/07 09:33:21;;;;;;;4.10;2.45;;;8.40;99.90;;;;;;4994793;28;20311;-89
2022/02/07 09:35:49;;;;;;;3.38;1.85;;;8.40;99.90;;;;;;5000712;28;20211;-89
2022/02/07 09:38:16;;;;;;;1.50;1.40;;;8.40;99.90;;;;;;4995062;28;20216;-89
2022/02/07 09:40:42;;;;;;;1.70;1.60;;;8.40;99.90;;;;;;4988905;28;20401;-89
2022/02/07 09:43:08;;;;;;;1.98;1.67;;;8.30;99.90;;;;;;4991710;28;20662;-89
2022/02/07 09:45:40;;;;;;;1.70;1.50;;;8.40;99.90;;;;;;4993829;28;20199;-90
2022/02/07 09:48:08;;;;;;;1.05;1.00;;;8.40;99.90;;;;;;4993431;28;20784;-89
2022/02/07 09:50:35;;;;;;;1.25;1.02;;;8.40;99.90;;;;;;4994467;28;20298;-90
2022/02/07 09:53:02;;;;;;;0.88;0.88;;;8.50;99.90;;;;;;4995963;28;20271;-90
2022/02/07 09:55:28;;;;;;;1.50;1.40;;;8.50;99.90;;;;;;5021297;28;20200;-90
2022/02/07 09:57:54;;;;;;;2.85;1.10;;;8.40;99.90;;;;;;4992323;28;20588;-89
2022/02/07 10:00:32;;;;;;;1.63;0.65;;;8.40;99.90;;;;;;4988781;28;20803;-89
2022/02/07 10:03:34;;;;;;;0.93;0.80;;;8.30;99.90;;;;;;4993436;28;20222;-89
2022/02/07 10:06:00;;;;;;;0.98;0.90;;;8.30;99.90;;;;;;4993110;28;20224;-90
2022/02/07 10:16:39;;;;;;;3.85;1.55;;;8.10;99.90;;;;;;4990027;28;20215;-90
2022/02/07 10:19:17;;;;;;;1.02;1.00;;;8.00;99.90;;;;;;4990662;28;20720;-89
2022/02/07 10:36:17;;;;;;;1.00;0.90;;;8.00;99.90;;;;;;4986931;28;20299;-89
2022/02/07 10:44:37;;;;;;;2.88;2.42;;;8.10;99.90;;;;;;5001486;28;20267;-89
2022/02/07 10:47:29;;;;;;;1.98;1.23;;;8.20;99.90;;;;;;5000309;28;20184;-90
2022/02/07 10:49:59;;;;;;;1.85;1.27;;;8.20;99.90;;;;;;4988202;28;20218;-89
2022/02/07 10:52:26;;;;;;;2.13;1.55;;;8.20;99.90;;;;;;4991427;28;20201;-90
2022/02/07 10:54:52;;;;;;;2.80;1.60;;;8.20;99.90;;;;;;4984544;28;20691;-90
2022/02/07 10:57:19;;;;;;;1.77;1.45;;;8.30;99.90;;;;;;4991880;28;20216;-89
2022/02/07 10:59:46;;;;;;;1.85;1.20;;;8.30;99.90;;;;;;4989422;28;20319;-88
2022/02/07 11:04:58;;;;;;;2.58;2.20;;;8.30;99.90;;;;;;4993899;28;20555;-89
2022/02/07 11:07:27;;;;;;;2.25;1.60;;;8.20;99.90;;;;;;4992197;28;20223;-90
2022/02/07 11:10:07;;;;;;;1.08;1.08;;;8.20;99.90;;;;;;4998746;28;20255;-90
2022/02/07 11:13:08;;;;;;;1.63;1.52;;;8.20;99.90;;;;;;5013798;28;20188;-90
2022/02/07 11:15:34;;;;;;;6.15;2.25;;;8.20;99.90;;;;;;5002515;28;20243;-90
2022/02/07 11:28:27;;;;;;;3.90;2.15;;;8.10;99.90;;;;;;4994544;28;20243;-89
2022/02/07 11:31:01;;;;;;;2.65;2.05;;;8.10;99.90;;;;;;4990177;28;20223;-90
2022/02/07 11:33:55;;;;;;;2.00;1.73;;;8.10;99.90;;;;;;4989555;28;20180;-89
2022/02/07 11:36:24;;;;;;;1.98;1.35;;;8.10;99.90;;;;;;5000642;28;20239;-89
2022/02/07 11:39:11;;;;;;;1.80;1.10;;;8.10;99.90;;;;;;4999904;28;20208;-89
2022/02/07 11:41:55;;;;;;;1.85;1.20;;;8.10;99.90;;;;;;4997606;28;20187;-90
2022/02/07 11:44:41;;;;;;;1.73;1.63;;;8.00;99.90;;;;;;4995565;28;20250;-90
2022/02/07 11:47:17;;;;;;;1.80;1.70;;;8.00;99.90;;;;;;4980230;28;20194;-91
2022/02/07 11:49:48;;;;;;;1.20;1.10;;;8.00;99.90;;;;;;4986574;28;20287;-89
2022/02/07 11:52:47;;;;;;;1.45;1.35;;;8.00;99.90;;;;;;4997278;28;20191;-89
2022/02/07 11:55:16;;;;;;;1.48;1.38;;;8.00;99.90;;;;;;4992310;28;20211;-89
2022/02/07 11:58:21;;;;;;;3.50;2.60;;;8.00;99.90;;;;;;4990779;28;20227;-91
2022/02/07 12:00:48;;;;;;;2.47;2.28;;;8.00;99.90;;;;;;4987893;28;20200;-90
2022/02/07 12:03:16;;;;;;;3.97;1.40;;;8.00;99.90;;;;;;4993686;28;20184;-90
2022/02/07 12:05:46;;;;;;;1.55;1.45;;;8.00;99.90;;;;;;4993782;28;20207;-90
2022/02/07 12:08:20;;;;;;;2.70;2.50;;;8.00;99.90;;;;;;4989852;28;20230;-88
2022/02/07 12:11:04;;;;;;;3.90;2.15;;;8.00;99.90;;;;;;4992361;28;20589;-90
2022/02/07 12:13:35;;;;;;;1.65;1.55;;;8.00;99.90;;;;;;4990098;28;20202;-91
2022/02/07 12:16:23;;;;;;;1.70;1.60;;;8.00;99.90;;;;;;5010955;28;20267;-90
2022/02/07 12:18:58;;;;;;;2.55;1.80;;;8.00;99.90;;;;;;4987203;28;20214;-90
2022/02/07 12:21:29;;;;;;;1.55;1.45;;;7.90;99.90;;;;;;4993872;28;20218;-89
2022/02/07 12:23:59;;;;;;;1.80;1.70;;;7.90;99.90;;;;;;4990678;28;20559;-89
2022/02/07 12:26:25;;;;;;;1.65;1.55;;;7.90;99.90;;;;;;4993882;28;20712;-89
2022/02/07 12:28:58;;;;;;;2.33;1.52;;;7.90;99.90;;;;;;4976548;28;20188;-90
2022/02/07 12:31:26;;;;;;;4.00;1.90;;;7.90;99.90;;;;;;5000138;28;20294;-90
2022/02/07 12:34:06;;;;;;;2.63;1.50;;;7.90;99.90;;;;;;4992629;28;20266;-89
2022/02/07 12:36:34;;;;;;;3.47;1.95;;;7.90;99.90;;;;;;4989803;28;20199;-89
2022/02/07 12:39:04;;;;;;;4.20;2.10;;;7.90;99.90;;;;;;4992958;28;20256;-91
2022/02/07 12:41:33;;;;;;;5.90;2.45;;;7.90;99.90;;;;;;4995839;28;20246;-90
2022/02/07 12:44:00;;;;;;;2.00;1.30;;;7.90;99.90;;;;;;4991704;28;20258;-91
2022/02/07 12:46:31;;;;;;;2.15;1.42;;;7.90;99.90;;;;;;5005538;28;20223;-91
2022/02/07 12:49:01;;;;;;;3.78;1.63;;;7.90;99.90;;;;;;4990103;28;20692;-90
2022/02/07 12:51:32;;;;;;;0.95;0.95;;;7.90;99.90;;;;;;4991966;28;20204;-91
2022/02/07 12:53:59;;;;;;;3.70;1.88;;;7.90;99.90;;;;;;4992205;28;20517;-90
2022/02/07 12:56:27;;;;;;;2.85;1.50;;;7.90;99.90;;;;;;4991755;28;20286;-90
2022/02/07 12:58:54;;;;;;;2.03;1.40;;;7.90;99.90;;;;;;4987835;28;20556;-90
2022/02/07 13:01:34;;;;;;;2.90;1.77;;;8.00;99.90;;;;;;4989805;28;20203;-89
2022/02/07 13:04:03;;;;;;;4.57;2.05;;;8.00;99.90;;;;;;5004588;28;20709;-89
2022/02/07 13:06:51;;;;;;;1.30;1.20;;;8.00;99.90;;;;;;4987141;28;20240;-89
2022/02/07 13:09:33;;;;;;;2.15;1.33;;;7.90;99.90;;;;;;4987515;28;20723;-89
2022/02/07 13:12:14;;;;;;;3.67;1.85;;;7.90;99.90;;;;;;5013921;28;20222;-89
2022/02/07 13:14:51;;;;;;;3.95;1.40;;;7.90;99.90;;;;;;4984131;28;20208;-90
2022/02/07 13:17:22;;;;;;;2.35;1.40;;;7.80;99.90;;;;;;4988042;28;20323;-91
2022/02/07 13:19:50;;;;;;;2.97;1.50;;;7.80;99.90;;;;;;5000517;28;20730;-90
2022/02/07 13:22:18;;;;;;;1.85;1.10;;;7.80;99.90;;;;;;4981878;28;20449;-90
2022/02/07 13:24:45;;;;;;;2.75;1.35;;;7.80;99.90;;;;;;4982800;28;20524;-90
2022/02/07 13:27:13;;;;;;;1.65;1.50;;;7.80;99.90;;;;;;4994588;28;20183;-90
2022/02/07 13:29:45;;;;;;;1.70;1.05;;;7.80;99.90;;;;;;4992917;28;20203;-89
2022/02/07 13:32:14;;;;;;;1.88;1.10;;;7.80;99.90;;;;;;4994669;28;20243;-89
2022/02/07 13:34:41;;;;;;;1.55;1.45;;;7.90;99.90;;;;;;5004897;28;20208;-89
2022/02/07 13:37:16;;;;;;;3.00;1.20;;;7.90;99.90;;;;;;4994812;28;20625;-89
2022/02/07 13:40:04;;;;;;;1.58;1.40;;;7.90;99.90;;;;;;4993859;28;20203;-89
2022/02/07 13:42:32;;;;;;;1.77;1.30;;;7.90;99.90;;;;;;4992926;28;20200;-89
2022/02/07 13:45:05;;;;;;;2.40;1.13;;;7.90;99.90;;;;;;4994005;28;20269;-88
2022/02/07 13:47:31;;;;;;;2.15;1.20;;;7.90;99.90;;;;;;4991942;28;20214;-90
2022/02/07 13:50:01;;;;;;;1.50;1.30;;;7.90;99.90;;;;;;5008360;28;20200;-89
2022/02/07 13:52:32;;;;;;;4.07;1.10;;;7.90;99.90;;;;;;4994005;28;20239;-90
2022/02/07 13:55:37;;;;;;;1.85;1.30;;;7.90;99.90;;;;;;4980148;28;20212;-90
2022/02/07 13:58:14;;;;;;;2.53;1.30;;;8.00;99.90;;;;;;4953516;29;20240;-89
2022/02/07 14:00:48;;;;;;;5.32;1.35;;;8.00;99.90;;;;;;4955485;29;20292;-90
2022/02/07 14:03:23;;;;;;;1.15;1.13;;;8.00;99.90;;;;;;4973009;28;20189;-90
2022/02/07 14:05:52;;;;;;;4.05;1.75;;;8.00;99.90;;;;;;4998147;28;20203;-89
2022/02/07 14:08:33;;;;;;;1.48;1.10;;;8.00;99.90;;;;;;4991016;28;20185;-89
2022/02/07 14:10:59;;;;;;;4.88;1.20;;;8.10;99.90;;;;;;4991289;28;20236;-89
2022/02/07 14:13:24;;;;;;;2.15;1.35;;;8.20;99.90;;;;;;4992895;28;20195;-90
2022/02/07 14:15:50;;;;;;;3.63;1.20;;;8.20;99.90;;;;;;4994493;28;20212;-91
2022/02/07 14:18:18;;;;;;;2.30;1.47;;;8.30;99.90;;;;;;4997588;28;20498;-90
2022/02/07 14:20:45;;;;;;;7.00;2.00;;;8.40;99.90;;;;;;4987611;28;20218;-89
2022/02/07 14:23:15;;;;;;;2.72;1.30;;;8.40;99.90;;;;;;4991469;28;20649;-89
2022/02/07 14:25:44;;;;;;;3.58;1.45;;;8.50;99.90;;;;;;4992968;28;20220;-88
2022/02/07 14:28:11;;;;;;;5.53;2.00;;;8.50;99.90;;;;;;4993210;28;20184;-88
2022/02/07 14:30:37;;;;;;;3.47;1.70;;;8.60;99.90;;;;;;4993490;28;20204;-89
2022/02/07 14:33:05;;;;;;;2.70;1.40;;;8.60;99.90;;;;;;4987503;28;20185;-87
2022/02/07 14:35:32;;;;;;;4.60;1.50;;;8.50;99.90;;;;;;4994329;28;20758;-89
2022/02/07 14:38:03;;;;;;;5.13;2.67;;;8.50;99.90;;;;;;4992167;28;20215;-88
2022/02/07 14:40:36;;;;;;;3.63;1.85;;;8.40;99.90;;;;;;4997314;28;20214;-88
2022/02/07 14:43:04;;;;;;;1.60;1.50;;;8.40;99.90;;;;;;4990715;28;20184;-89
2022/02/07 14:45:35;;;;;;;3.95;2.22;;;8.30;99.90;;;;;;4994859;28;20214;-88
2022/02/07 14:48:01;;;;;;;1.30;1.20;;;8.20;99.90;;;;;;4993282;28;20192;-88
2022/02/07 14:50:28;;;;;;;5.20;1.60;;;8.10;99.90;;;;;;4994675;28;20270;-89
2022/02/07 14:52:55;;;;;;;1.75;1.35;;;8.10;99.90;;;;;;4995077;28;20184;-88
2022/02/07 14:55:23;;;;;;;1.63;1.15;;;8.00;99.90;;;;;;4996127;28;20215;-88
2022/02/07 14:57:49;;;;;;;2.00;1.10;;;8.00;99.90;;;;;;4998810;28;20207;-87
2022/02/07 15:00:18;;;;;;;4.72;1.70;;;7.90;99.90;;;;;;5001560;28;20685;-90
2022/02/07 15:02:46;;;;;;;1.92;1.30;;;8.00;99.90;;;;;;4991803;28;20192;-88
2022/02/07 15:05:12;;;;;;;3.03;1.10;;;8.10;99.90;;;;;;4987913;28;20196;-88
2022/02/07 15:07:38;;;;;;;5.47;1.35;;;8.20;99.90;;;;;;4991747;28;20206;-89
2022/02/07 15:10:06;;;;;;;1.33;0.93;;;8.30;99.90;;;;;;4995134;28;20770;-89
2022/02/07 15:12:33;;;;;;;3.97;1.52;;;8.30;99.90;;;;;;4997579;28;20183;-89
2022/02/07 15:14:59;;;;;;;2.35;1.30;;;8.40;99.90;;;;;;4993422;28;20234;-87
2022/02/07 15:17:29;;;;;;;2.67;1.23;;;8.50;99.90;;;;;;4998578;28;20251;-88
2022/02/07 15:19:58;;;;;;;1.27;1.17;;;8.70;99.90;;;;;;5015722;28;20273;-88
2022/02/07 15:22:25;;;;;;;2.65;2.20;;;8.70;99.90;;;;;;5004279;28;20180;-88
2022/02/07 15:24:51;;;;;;;5.82;1.60;;;8.70;99.90;;;;;;4982003;28;20338;-88
2022/02/07 15:27:17;;;;;;;2.28;1.30;;;8.50;99.90;;;;;;5005844;28;20191;-88
2022/02/07 15:29:44;;;;;;;5.50;1.40;;;8.40;99.90;;;;;;4990258;28;20200;-88
2022/02/07 15:32:25;;;;;;;2.55;1.30;;;8.20;99.90;;;;;;4989960;28;20515;-88